Nathrop, Colorado
Current Conditions -  °F | °C
As of 2:35 AM on Thursday 18 Dec 2014 (Local Time) from KAEJ Reporting Station
Clear Clear  
Wind Chill: -7°   Ceiling: Unl
Heat Index: -7°   Visibility: 10mi
Dew Point: -9°   Wind: 3mph
Humidity: 84%   Direction: 270°W
Pressure: 30.01"   Gusts: NA
Location:  38.75°N, 106.08°W
Report Text: KAEJ 180935Z AUTO 27003KT 10SM CLR M07/M09 A3001 RMK AO2 T10701093
Loading
Personal Weather Stations






























Interactive Weather Map New forecast layout! Learn more

10-Day Weather Forecast

Advertisements
Track Severe Weather on mobile